Time;durP1;ratioP1;P1;durP2;ratioP2;P2;SDS_P1;SDS_P2;PMS_P1;PMS_P2;Temp;Humidity;BMP_temperature;BMP_pressure;BME280_temperature;BME280_humidity;BME280_pressure;Samples;Min_cycle;Max_cycle;Signal;HPM_P1;HPM_P2
2021/12/24 00:01:06;;;;;;;73.28;35.85;;;;;;;1.14;100.00;99172.38;5003811;28;20096;-64
2021/12/24 00:03:33;;;;;;;63.20;34.17;;;;;;;1.21;100.00;99173.78;5007877;28;20153;-64
2021/12/24 00:06:03;;;;;;;65.60;36.40;;;;;;;1.22;100.00;99177.25;5006150;28;20057;-65
2021/12/24 00:08:30;;;;;;;64.75;35.13;;;;;;;1.21;100.00;99170.34;5005628;28;20046;-64
2021/12/24 00:11:00;;;;;;;65.50;35.33;;;;;;;1.25;100.00;99180.53;5000001;28;20050;-64
2021/12/24 00:13:30;;;;;;;64.72;34.67;;;;;;;1.27;100.00;99168.34;5006032;28;20085;-63
2021/12/24 00:19:02;;;;;;;68.65;35.22;;;;;;;1.30;100.00;99172.53;4993674;28;20927;-63
2021/12/24 00:22:13;;;;;;;74.38;37.45;;;;;;;1.27;100.00;99167.50;5006303;28;20053;-64
2021/12/24 00:35:34;;;;;;;76.38;38.38;;;;;;;1.29;100.00;99157.91;5007408;28;20054;-64
2021/12/24 00:38:03;;;;;;;71.85;36.80;;;;;;;1.39;100.00;99158.31;5012343;28;20054;-65
2021/12/24 00:40:36;;;;;;;73.15;35.55;;;;;;;1.46;100.00;99157.16;5007691;28;20069;-64
2021/12/24 00:43:04;;;;;;;67.03;35.60;;;;;;;1.43;100.00;99150.34;5009258;28;20520;-63
2021/12/24 00:45:33;;;;;;;69.15;34.92;;;;;;;1.44;100.00;99141.69;5009903;28;20542;-63
2021/12/24 00:48:01;;;;;;;72.35;35.67;;;;;;;1.46;100.00;99128.63;4991539;28;20466;-63
2021/12/24 00:50:47;;;;;;;72.28;36.58;;;;;;;1.42;100.00;99132.28;5006553;28;20853;-65
2021/12/24 00:56:03;;;;;;;73.03;36.77;;;;;;;1.42;100.00;99130.50;4992271;28;20058;-62
2021/12/24 00:58:31;;;;;;;67.82;36.05;;;;;;;1.50;100.00;99141.38;5014621;28;20092;-64
2021/12/24 01:00:58;;;;;;;73.68;36.50;;;;;;;1.52;100.00;99136.94;5013935;28;20054;-64
2021/12/24 01:03:25;;;;;;;69.90;36.33;;;;;;;1.54;100.00;99147.28;5017075;28;20050;-64
2021/12/24 01:05:53;;;;;;;67.15;36.97;;;;;;;1.50;100.00;99132.75;5014220;28;20068;-65
2021/12/24 01:08:21;;;;;;;68.78;37.05;;;;;;;1.53;100.00;99135.19;5015498;28;20156;-64
2021/12/24 01:10:52;;;;;;;71.40;36.47;;;;;;;1.52;100.00;99133.53;5012264;28;20096;-64
2021/12/24 01:13:19;;;;;;;67.13;34.70;;;;;;;1.57;100.00;99120.34;4998278;28;20159;-64
2021/12/24 01:15:58;;;;;;;72.53;33.95;;;;;;;1.56;100.00;99118.66;5008757;28;20082;-63
2021/12/24 01:18:38;;;;;;;73.70;37.15;;;;;;;1.59;100.00;99121.97;5014253;28;20057;-63
2021/12/24 01:23:46;;;;;;;66.78;36.05;;;;;;;1.63;100.00;99114.91;5016092;28;20477;-64
2021/12/24 01:26:21;;;;;;;70.55;35.42;;;;;;;1.67;100.00;99119.88;5012855;28;20060;-63
2021/12/24 01:37:53;;;;;;;67.97;35.05;;;;;;;1.71;100.00;99116.22;5007362;28;20112;-65
2021/12/24 01:40:07;;;;;;;72.13;37.15;;;;;;;1.71;100.00;99108.44;5009217;28;20522;-64
2021/12/24 01:43:08;;;;;;;61.90;32.70;;;;;;;1.83;100.00;99116.53;4996193;28;20057;-64
2021/12/24 01:45:30;;;;;;;69.35;35.50;;;;;;;1.77;100.00;99112.50;5004745;28;20046;-63
2021/12/24 01:48:00;;;;;;;64.85;34.08;;;;;;;1.80;100.00;99103.69;4996563;28;20054;-63
2021/12/24 01:50:31;;;;;;;68.60;33.53;;;;;;;1.81;100.00;99105.41;5002235;28;20105;-63
2021/12/24 01:52:59;;;;;;;62.15;33.38;;;;;;;1.85;100.00;99107.78;5006588;28;20050;-64
2021/12/24 01:55:27;;;;;;;64.63;34.00;;;;;;;1.87;100.00;99116.31;5006500;28;20100;-64
2021/12/24 01:57:54;;;;;;;64.43;33.40;;;;;;;1.89;100.00;99104.13;5012718;28;20382;-64
2021/12/24 02:00:25;;;;;;;61.30;32.25;;;;;;;1.93;100.00;99105.63;5009536;28;20145;-64
2021/12/24 02:02:53;;;;;;;58.55;31.42;;;;;;;1.94;100.00;99098.72;5007727;28;20085;-63
2021/12/24 02:05:21;;;;;;;57.13;31.40;;;;;;;1.94;100.00;99098.72;5008034;28;20050;-65
2021/12/24 02:07:48;;;;;;;57.08;31.20;;;;;;;1.94;100.00;99101.31;5011699;28;20248;-62
2021/12/24 02:10:17;;;;;;;56.28;30.35;;;;;;;1.97;100.00;99090.78;5004359;28;20053;-62
2021/12/24 02:12:45;;;;;;;52.70;28.95;;;;;;;2.00;100.00;99090.63;5010923;28;20057;-63
2021/12/24 02:15:23;;;;;;;50.78;28.42;;;;;;;1.97;100.00;99085.56;5004754;28;20086;-64
2021/12/24 02:28:55;;;;;;;47.72;27.02;;;;;;;2.09;100.00;99066.81;5009240;28;20053;-62
2021/12/24 02:31:24;;;;;;;46.13;27.33;;;;;;;2.14;100.00;99069.19;5003774;28;20057;-62
2021/12/24 02:33:53;;;;;;;42.50;25.70;;;;;;;2.10;100.00;99060.69;5008928;28;20068;-60
2021/12/24 02:36:21;;;;;;;41.90;24.40;;;;;;;2.15;100.00;99057.88;5001631;28;20530;-61
2021/12/24 02:38:49;;;;;;;44.47;25.52;;;;;;;2.11;100.00;99067.56;5004591;28;20057;-62
2021/12/24 02:41:17;;;;;;;42.63;23.45;;;;;;;2.14;100.00;99056.22;5004284;28;20108;-64
2021/12/24 02:43:45;;;;;;;41.05;24.83;;;;;;;2.17;100.00;99050.88;5008487;28;20483;-63
2021/12/24 02:46:26;;;;;;;38.05;23.23;;;;;;;2.16;100.00;99043.97;4993656;28;20054;-64
2021/12/24 02:54:12;;;;;;;42.90;24.50;;;;;;;2.22;100.00;99043.69;5006037;28;20525;-64
2021/12/24 02:56:45;;;;;;;41.50;23.55;;;;;;;2.25;100.00;99046.13;5006250;28;20128;-64
2021/12/24 02:59:13;;;;;;;37.55;22.60;;;;;;;2.28;100.00;99043.38;5004919;28;20053;-64
2021/12/24 03:01:45;;;;;;;41.00;23.98;;;;;;;2.34;100.00;99037.03;5005964;28;20068;-64
2021/12/24 03:04:14;;;;;;;40.00;22.25;;;;;;;2.32;100.00;99039.72;5001019;28;20232;-64
2021/12/24 03:06:45;;;;;;;40.00;22.58;;;;;;;2.32;100.00;99039.72;5009324;28;20054;-64
2021/12/24 03:09:15;;;;;;;32.47;19.90;;;;;;;2.35;100.00;99031.78;5004252;28;20447;-62
2021/12/24 03:11:44;;;;;;;37.90;22.35;;;;;;;2.37;100.00;99031.69;5007890;28;20522;-64
2021/12/24 03:14:14;;;;;;;37.67;21.58;;;;;;;2.38;100.00;99034.19;5004084;28;20108;-62
2021/12/24 03:16:45;;;;;;;38.20;23.42;;;;;;;2.36;100.00;99036.03;5009876;28;20129;-64
2021/12/24 03:19:12;;;;;;;36.53;22.00;;;;;;;2.39;100.00;99035.91;5002269;28;20525;-62
2021/12/24 03:21:55;;;;;;;36.47;22.10;;;;;;;2.43;100.00;99026.16;5009364;28;20050;-64
2021/12/24 03:26:49;;;;;;;35.13;21.00;;;;;;;2.50;100.00;99030.97;4991537;28;20054;-64
2021/12/24 03:29:18;;;;;;;33.50;20.20;;;;;;;2.50;100.00;99030.13;4999453;28;20062;-64
2021/12/24 03:31:45;;;;;;;33.70;20.83;;;;;;;2.51;100.00;99029.22;5009036;28;20140;-63
2021/12/24 03:34:17;;;;;;;36.88;20.70;;;;;;;2.50;100.00;99023.19;5003134;28;20050;-64
2021/12/24 03:36:44;;;;;;;33.85;20.67;;;;;;;2.52;100.00;99026.56;5002593;28;20038;-64
2021/12/24 03:39:12;;;;;;;34.78;20.40;;;;;;;2.61;100.00;99014.84;5001391;28;20060;-62
2021/12/24 03:41:39;;;;;;;33.05;20.38;;;;;;;2.57;100.00;99017.66;4999712;28;20465;-64
2021/12/24 03:44:09;;;;;;;31.20;19.42;;;;;;;2.59;100.00;99019.28;5001487;28;20136;-64
2021/12/24 03:49:30;;;;;;;34.35;21.80;;;;;;;2.70;100.00;99029.09;5005069;28;20053;-64
2021/12/24 03:52:16;;;;;;;33.03;20.52;;;;;;;2.68;100.00;99015.38;5008040;28;20074;-64
2021/12/24 03:54:58;;;;;;;33.20;20.95;;;;;;;2.67;100.00;99005.91;5003715;28;20054;-64
2021/12/24 03:57:28;;;;;;;32.38;20.02;;;;;;;2.66;100.00;99014.63;5008194;28;20108;-64
2021/12/24 03:59:57;;;;;;;36.65;20.85;;;;;;;2.66;100.00;99005.06;5004275;28;20050;-64
2021/12/24 04:02:24;;;;;;;34.50;20.30;;;;;;;2.72;100.00;99009.09;5001809;28;20157;-64
2021/12/24 04:04:52;;;;;;;31.02;18.67;;;;;;;2.72;100.00;99006.50;5007001;28;20550;-64
2021/12/24 04:07:19;;;;;;;35.75;20.02;;;;;;;2.73;100.00;98998.59;5012224;28;20140;-64
2021/12/24 04:09:59;;;;;;;35.97;21.20;;;;;;;2.77;100.00;98983.69;5004425;28;20053;-64
2021/12/24 04:12:26;;;;;;;38.60;21.05;;;;;;;2.85;100.00;98986.72;5008221;28;20144;-62
2021/12/24 04:14:53;;;;;;;31.08;19.52;;;;;;;2.83;100.00;98979.91;5009109;28;20499;-62
2021/12/24 04:17:21;;;;;;;35.38;20.02;;;;;;;2.88;100.00;98983.09;5004777;28;20081;-64
2021/12/24 04:24:51;;;;;;;36.55;19.23;;;;;;;2.88;100.00;98986.56;5004741;28;20100;-63
2021/12/24 04:25:21;;;;;;;31.15;19.20;;;;;;;2.94;100.00;98980.19;5007145;28;20050;-63
2021/12/24 04:27:50;;;;;;;30.48;18.58;;;;;;;2.93;100.00;98976.75;5012560;28;20065;-62
2021/12/24 04:30:22;;;;;;;31.45;19.02;;;;;;;2.96;100.00;98986.13;5004508;28;20129;-63
2021/12/24 04:32:59;;;;;;;32.20;18.58;;;;;;;2.97;100.00;98980.88;5009799;28;20133;-62
2021/12/24 04:51:52;;;;;;;26.90;17.23;;;;;;;3.19;100.00;98967.53;5006198;28;20060;-64
2021/12/24 05:05:18;;;;;;;28.38;16.00;;;;;;;3.29;100.00;98960.06;5006153;28;20046;-64
2021/12/24 05:08:09;;;;;;;28.25;16.15;;;;;;;3.32;100.00;98949.47;5010883;28;20050;-64
2021/12/24 05:10:37;;;;;;;25.15;15.45;;;;;;;3.31;100.00;98953.00;5003389;28;20075;-64
2021/12/24 05:13:07;;;;;;;25.60;15.55;;;;;;;3.34;100.00;98950.25;5009488;28;20053;-64
2021/12/24 05:15:39;;;;;;;26.27;14.85;;;;;;;3.38;100.00;98951.75;5005680;28;20128;-64
2021/12/24 05:18:17;;;;;;;23.83;14.43;;;;;;;3.41;100.00;98961.13;5010014;28;20054;-62
2021/12/24 05:23:29;;;;;;;21.47;13.13;;;;;;;3.52;100.00;98948.38;5009099;28;20061;-63
2021/12/24 05:25:58;;;;;;;21.67;13.10;;;;;;;3.50;100.00;98951.03;5007681;28;20479;-60
2021/12/24 05:28:25;;;;;;;20.42;12.18;;;;;;;3.52;100.00;98953.56;5008950;28;20057;-64
2021/12/24 05:30:53;;;;;;;21.42;13.55;;;;;;;3.58;100.00;98953.22;5007381;28;20458;-63
2021/12/24 05:33:20;;;;;;;20.17;12.88;;;;;;;3.56;100.00;98947.28;4994399;28;20096;-62
2021/12/24 05:35:47;;;;;;;18.10;11.85;;;;;;;3.58;100.00;98950.63;5006161;28;20072;-64
2021/12/24 05:38:15;;;;;;;19.02;11.63;;;;;;;3.63;100.00;98950.34;5007767;28;20081;-64
2021/12/24 05:40:43;;;;;;;17.95;11.85;;;;;;;3.70;100.00;98956.91;5007831;28;20056;-64
2021/12/24 05:43:11;;;;;;;17.75;12.23;;;;;;;3.70;100.00;98943.88;5010889;28;20056;-64
2021/12/24 05:45:39;;;;;;;16.40;11.02;;;;;;;3.70;100.00;98955.13;5004778;28;20078;-64
2021/12/24 05:48:07;;;;;;;15.90;11.27;;;;;;;3.72;100.00;98963.66;5011790;28;20054;-64
2021/12/24 05:50:34;;;;;;;17.00;9.85;;;;;;;3.73;100.00;98951.50;5008263;28;20042;-64
2021/12/24 05:53:01;;;;;;;14.95;9.90;;;;;;;3.73;100.00;98959.31;5008957;28;20248;-61
2021/12/24 05:55:28;;;;;;;13.07;8.73;;;;;;;3.75;100.00;98954.88;5007956;28;20081;-62
2021/12/24 05:57:55;;;;;;;13.20;9.23;;;;;;;3.79;100.00;98943.34;5008366;28;20416;-62
2021/12/24 06:00:22;;;;;;;12.15;8.32;;;;;;;3.79;100.00;98944.19;5005729;28;20054;-62
2021/12/24 06:02:50;;;;;;;12.07;8.30;;;;;;;3.81;100.00;98934.50;5007698;28;20050;-62
2021/12/24 06:05:17;;;;;;;12.45;8.20;;;;;;;3.86;100.00;98928.19;5006295;28;20428;-63
2021/12/24 06:07:44;;;;;;;11.63;7.32;;;;;;;3.93;100.00;98917.34;5011783;28;20525;-62
2021/12/24 06:10:11;;;;;;;8.80;6.60;;;;;;;3.96;100.00;98927.59;4999295;28;20060;-62
2021/12/24 06:12:38;;;;;;;9.00;6.35;;;;;;;3.94;100.00;98928.59;5005517;28;20050;-62
2021/12/24 06:15:08;;;;;;;9.85;6.32;;;;;;;3.95;100.00;98933.69;5007225;28;20054;-62
2021/12/24 06:17:37;;;;;;;8.48;6.07;;;;;;;4.00;100.00;98936.03;5008652;28;20418;-62
2021/12/24 06:20:07;;;;;;;7.47;6.07;;;;;;;4.02;100.00;98932.41;5006606;28;20049;-62
2021/12/24 06:22:34;;;;;;;9.10;5.95;;;;;;;4.06;100.00;98931.31;5011783;28;20054;-63
2021/12/24 06:25:02;;;;;;;8.05;5.60;;;;;;;4.20;100.00;98911.44;5003378;28;20064;-62
2021/12/24 06:27:30;;;;;;;8.18;5.50;;;;;;;4.11;100.00;98914.59;5009517;28;20080;-62
2021/12/24 06:29:57;;;;;;;7.93;5.25;;;;;;;4.16;100.00;98921.19;5005553;28;20052;-62
2021/12/24 06:32:25;;;;;;;8.20;5.75;;;;;;;4.17;100.00;98927.22;5010558;28;20137;-61
2021/12/24 06:34:52;;;;;;;6.75;4.88;;;;;;;4.14;100.00;98916.97;4998890;28;20133;-64
2021/12/24 06:37:20;;;;;;;6.28;4.95;;;;;;;4.19;100.00;98921.00;5010659;28;20140;-64
2021/12/24 06:39:47;;;;;;;6.95;4.93;;;;;;;4.16;100.00;98923.78;5005385;28;20144;-62
2021/12/24 06:42:14;;;;;;;6.15;4.50;;;;;;;4.13;100.00;98928.34;5006979;28;20052;-61
2021/12/24 06:44:41;;;;;;;6.85;5.22;;;;;;;4.18;100.00;98927.13;5003982;28;20054;-64
2021/12/24 06:47:08;;;;;;;7.25;4.97;;;;;;;4.20;100.00;98927.88;5011586;28;20049;-64
2021/12/24 06:49:36;;;;;;;5.95;5.25;;;;;;;4.22;100.00;98925.19;5004914;28;20053;-64
2021/12/24 06:52:03;;;;;;;6.68;5.28;;;;;;;4.21;100.00;98929.56;5007134;28;20078;-64
2021/12/24 06:54:33;;;;;;;6.38;4.75;;;;;;;4.24;100.00;98931.16;5006884;28;20072;-64
2021/12/24 06:57:01;;;;;;;5.38;4.72;;;;;;;4.27;100.00;98931.78;5009990;28;20060;-64
2021/12/24 06:59:29;;;;;;;5.70;5.10;;;;;;;4.27;100.00;98923.13;5005194;28;20052;-64
2021/12/24 07:01:59;;;;;;;6.80;4.50;;;;;;;4.25;100.00;98928.44;4999862;28;20537;-64
2021/12/24 07:04:26;;;;;;;5.55;4.43;;;;;;;4.33;100.00;98935.81;5003265;28;20404;-63
2021/12/24 07:06:54;;;;;;;5.07;4.05;;;;;;;4.32;100.00;98934.09;4992097;28;20492;-63
2021/12/24 07:09:22;;;;;;;4.03;3.65;;;;;;;4.34;100.00;98934.88;4999383;28;20066;-63
2021/12/24 07:11:50;;;;;;;4.88;4.07;;;;;;;4.31;100.00;98925.47;5004536;28;20038;-64
2021/12/24 07:14:17;;;;;;;5.22;4.30;;;;;;;4.34;100.00;98934.88;5004317;28;20057;-63
2021/12/24 07:16:46;;;;;;;4.78;4.05;;;;;;;4.34;100.00;98928.81;5009498;28;20065;-63
2021/12/24 07:19:13;;;;;;;4.38;3.58;;;;;;;4.42;100.00;98927.44;5004357;28;20136;-63
2021/12/24 07:21:41;;;;;;;3.97;3.55;;;;;;;4.39;100.00;98938.03;5009502;28;20049;-64
2021/12/24 07:24:09;;;;;;;4.78;3.75;;;;;;;4.42;100.00;98937.84;5002732;28;20147;-64
2021/12/24 07:26:37;;;;;;;6.20;3.70;;;;;;;4.40;100.00;98928.44;5006001;28;20528;-63
2021/12/24 07:29:04;;;;;;;3.88;3.30;;;;;;;4.43;100.00;98936.91;5006442;28;20140;-64
2021/12/24 07:31:31;;;;;;;4.28;3.83;;;;;;;4.43;100.00;98923.06;5008190;28;20046;-64
2021/12/24 07:33:58;;;;;;;3.50;2.97;;;;;;;4.52;100.00;98933.75;5007402;28;20140;-63
2021/12/24 07:36:25;;;;;;;3.30;3.00;;;;;;;4.48;100.00;98947.91;5058093;22;20523;-58
2021/12/24 07:38:52;;;;;;;3.53;3.08;;;;;;;4.50;100.00;98934.75;5046401;28;20412;-58
2021/12/24 07:41:19;;;;;;;3.42;3.00;;;;;;;4.52;100.00;98930.31;5044917;28;20272;-61
2021/12/24 07:43:47;;;;;;;2.80;2.42;;;;;;;4.55;100.00;98927.53;5046269;28;20082;-60
2021/12/24 07:46:14;;;;;;;5.25;3.17;;;;;;;4.54;100.00;98931.03;5045522;28;20147;-59
2021/12/24 07:49:12;;;;;;;5.25;2.92;;;;;;;4.63;100.00;98927.03;5035839;28;20054;-59
2021/12/24 07:54:17;;;;;;;3.55;2.70;;;;;;;4.55;100.00;98930.97;5046567;28;20103;-59
2021/12/24 07:56:44;;;;;;;3.90;2.63;;;;;;;4.62;100.00;98933.19;5052404;28;20051;-60
2021/12/24 07:59:14;;;;;;;4.88;3.00;;;;;;;4.57;100.00;98918.66;5043802;28;20452;-60
2021/12/24 08:01:44;;;;;;;3.63;2.55;;;;;;;4.62;100.00;98922.75;5051352;28;20405;-56
2021/12/24 08:04:12;;;;;;;3.53;2.97;;;;;;;4.62;100.00;98927.97;5045640;28;20476;-59
2021/12/24 08:06:39;;;;;;;3.10;2.60;;;;;;;4.62;100.00;98931.41;5049131;28;20505;-60
2021/12/24 08:09:07;;;;;;;3.40;2.53;;;;;;;4.65;100.00;98933.84;5043104;28;20065;-61
2021/12/24 08:11:35;;;;;;;3.35;2.50;;;;;;;4.70;100.00;98939.59;5050358;28;20572;-59
2021/12/24 08:14:03;;;;;;;3.38;3.08;;;;;;;4.69;100.00;98926.69;5046119;28;20051;-61
2021/12/24 08:16:30;;;;;;;3.78;2.80;;;;;;;4.78;100.00;98926.09;5048866;28;20100;-59
2021/12/24 08:18:58;;;;;;;4.10;3.00;;;;;;;4.75;100.00;98921.91;5044830;28;20077;-60
2021/12/24 08:21:26;;;;;;;2.85;2.58;;;;;;;4.74;100.00;98917.63;5047060;28;20148;-59
2021/12/24 08:23:57;;;;;;;2.85;2.28;;;;;;;4.77;100.00;98927.88;5049122;28;20138;-59
2021/12/24 08:26:25;;;;;;;2.70;2.45;;;;;;;4.78;100.00;98919.13;5047934;28;20051;-59
2021/12/24 08:28:52;;;;;;;2.58;2.38;;;;;;;4.81;100.00;98920.69;5045851;28;20055;-58
2021/12/24 08:31:19;;;;;;;4.10;2.80;;;;;;;4.87;100.00;98922.94;5051028;28;20228;-59
2021/12/24 08:33:46;;;;;;;3.30;2.90;;;;;;;4.83;100.00;98921.44;5047175;28;20061;-59
2021/12/24 08:36:13;;;;;;;3.67;2.60;;;;;;;4.85;100.00;98914.34;5041977;28;20053;-58
2021/12/24 08:38:41;;;;;;;5.88;2.45;;;;;;;4.89;100.00;98915.00;5045637;28;20057;-58
2021/12/24 08:41:08;;;;;;;2.60;2.30;;;;;;;4.81;100.00;98910.25;5042422;28;20141;-60
2021/12/24 08:43:35;;;;;;;4.28;2.75;;;;;;;4.85;100.00;98901.31;5047376;28;20288;-60
2021/12/24 08:46:02;;;;;;;2.83;2.50;;;;;;;4.86;100.00;98904.75;5047191;28;20593;-60
2021/12/24 08:48:29;;;;;;;2.85;2.65;;;;;;;4.91;100.00;98903.56;5047890;28;20084;-59
2021/12/24 08:50:57;;;;;;;3.25;2.70;;;;;;;4.99;100.00;98903.88;5045676;28;20057;-60
2021/12/24 08:53:24;;;;;;;3.15;2.60;;;;;;;5.02;100.00;98908.91;5044079;28;20059;-59
2021/12/24 08:55:51;;;;;;;2.38;2.17;;;;;;;4.96;100.00;98903.25;5055104;28;20222;-58
2021/12/24 08:58:19;;;;;;;3.13;2.25;;;;;;;4.97;100.00;98903.16;5048920;28;20091;-58
2021/12/24 09:00:46;;;;;;;4.15;2.22;;;;;;;5.01;100.00;98891.59;5050860;28;20056;-59
2021/12/24 09:03:13;;;;;;;2.40;1.83;;;;;;;5.04;100.00;98887.94;5050786;28;20056;-60
2021/12/24 09:05:41;;;;;;;2.85;2.03;;;;;;;5.05;100.00;98895.69;5053583;28;20430;-60
2021/12/24 09:08:08;;;;;;;2.63;2.05;;;;;;;5.06;100.00;98891.28;5045316;28;20057;-60
2021/12/24 09:10:35;;;;;;;1.73;1.58;;;;;;;5.13;100.00;98895.16;5051303;28;20037;-58
2021/12/24 09:13:03;;;;;;;2.05;1.55;;;;;;;5.12;100.00;98896.09;5052210;28;20136;-59
2021/12/24 09:15:30;;;;;;;2.05;1.67;;;;;;;5.13;100.00;98891.72;5050777;28;20060;-59
2021/12/24 09:17:58;;;;;;;2.05;1.48;;;;;;;5.11;100.00;98886.63;5052400;28;20127;-59
2021/12/24 09:20:31;;;;;;;1.75;1.58;;;;;;;5.14;100.00;98888.22;5049243;28;20120;-60
2021/12/24 09:23:00;;;;;;;2.78;1.50;;;;;;;5.14;100.00;98873.38;5051562;28;20112;-59
2021/12/24 09:25:28;;;;;;;2.80;1.58;;;;;;;5.18;100.00;98881.84;5047488;28;20076;-60
2021/12/24 09:27:56;;;;;;;1.52;1.25;;;;;;;5.11;100.00;98888.41;5052105;28;20049;-60
2021/12/24 09:30:23;;;;;;;1.83;1.20;;;;;;;5.04;100.00;98896.63;5048438;28;20071;-59
2021/12/24 09:32:51;;;;;;;1.60;1.40;;;;;;;5.01;100.00;98888.97;5047323;28;20453;-60
2021/12/24 09:35:19;;;;;;;2.55;1.23;;;;;;;5.02;100.00;98903.69;5048172;28;20067;-60
2021/12/24 09:37:47;;;;;;;1.80;1.17;;;;;;;5.02;100.00;98905.47;5051760;28;20061;-61
2021/12/24 09:40:16;;;;;;;1.50;1.40;;;;;;;5.00;100.00;98900.34;5047837;28;20088;-59
2021/12/24 09:42:43;;;;;;;1.33;1.20;;;;;;;4.93;100.00;98895.63;5048165;28;20053;-60
2021/12/24 09:45:10;;;;;;;2.03;1.30;;;;;;;4.93;100.00;98896.44;5048081;28;20049;-60
2021/12/24 09:47:38;;;;;;;2.15;1.45;;;;;;;4.95;100.00;98897.19;5051507;28;20084;-59
2021/12/24 09:50:06;;;;;;;4.10;1.48;;;;;;;5.02;100.00;98901.09;5048572;28;20106;-58
2021/12/24 09:52:34;;;;;;;1.52;0.98;;;;;;;4.99;100.00;98893.44;5051313;28;20053;-60
2021/12/24 09:55:14;;;;;;;1.90;1.10;;;;;;;5.00;100.00;98891.69;5033949;28;20057;-60
2021/12/24 09:57:42;;;;;;;1.73;1.27;;;;;;;5.08;100.00;98898.06;5047278;28;20132;-54
2021/12/24 10:00:11;;;;;;;1.23;0.98;;;;;;;5.02;100.00;98903.69;5049227;28;20539;-58
2021/12/24 10:02:44;;;;;;;1.52;1.30;;;;;;;5.01;100.00;98891.59;5032480;28;20140;-55
2021/12/24 10:05:37;;;;;;;1.40;1.17;;;;;;;5.22;100.00;98885.91;5050569;28;20057;-59
2021/12/24 10:08:06;;;;;;;1.83;1.58;;;;;;;5.25;100.00;98896.16;5045970;28;20099;-60
2021/12/24 10:10:35;;;;;;;1.90;1.42;;;;;;;5.19;100.00;98896.56;5050372;28;20059;-61
2021/12/24 10:13:44;;;;;;;3.30;1.55;;;;;;;5.19;100.00;98899.19;5050523;28;20533;-60
2021/12/24 10:16:16;;;;;;;1.73;1.40;;;;;;;5.31;100.00;98887.94;5050862;28;20067;-58
2021/12/24 10:18:45;;;;;;;1.65;1.17;;;;;;;5.23;100.00;98898.88;5027762;28;20076;-58
2021/12/24 10:21:20;;;;;;;1.60;1.20;;;;;;;5.13;100.00;98900.38;5054749;28;20057;-60
2021/12/24 10:23:51;;;;;;;2.55;1.60;;;;;;;5.13;100.00;98902.16;5048931;28;20083;-58
2021/12/24 10:26:31;;;;;;;1.50;1.33;;;;;;;5.20;100.00;98903.44;5047950;28;20098;-59
2021/12/24 10:29:02;;;;;;;4.22;1.48;;;;;;;5.16;100.00;98902.81;5048441;28;20049;-59
2021/12/24 10:31:35;;;;;;;3.40;1.88;;;;;;;5.16;100.00;98907.19;5031600;28;20045;-59
2021/12/24 10:34:15;;;;;;;1.80;1.52;;;;;;;5.18;100.00;98892.25;5030537;28;20056;-59
2021/12/24 10:36:57;;;;;;;3.15;1.63;;;;;;;5.21;100.00;98882.47;5044262;28;20563;-61
2021/12/24 10:39:45;;;;;;;2.05;1.30;;;;;;;5.28;100.00;98880.31;5047784;28;20071;-60
2021/12/24 10:42:35;;;;;;;3.15;1.58;;;;;;;5.51;100.00;98874.44;5048888;28;20049;-60
2021/12/24 10:45:08;;;;;;;2.20;1.50;;;;;;;5.61;100.00;98879.88;5047036;28;20072;-60
2021/12/24 10:47:39;;;;;;;1.98;1.30;;;;;;;5.55;100.00;98875.91;5050794;28;20052;-59
2021/12/24 10:50:13;;;;;;;3.10;1.50;;;;;;;5.44;100.00;98890.56;5048446;28;20440;-59
2021/12/24 10:53:15;;;;;;;1.95;1.15;;;;;;;5.20;100.00;98882.59;5049255;28;20045;-59
2021/12/24 10:55:54;;;;;;;1.60;1.20;;;;;;;5.19;100.00;98886.13;5048259;28;20595;-59
2021/12/24 10:58:23;;;;;;;2.65;1.20;;;;;;;5.31;100.00;98887.94;5045718;28;20114;-60
2021/12/24 11:00:55;;;;;;;1.38;0.80;;;;;;;5.31;100.00;98886.19;5047634;28;20479;-57
2021/12/24 11:03:25;;;;;;;1.63;0.93;;;;;;;5.31;100.00;98890.53;5048164;28;20098;-59
2021/12/24 11:06:05;;;;;;;2.10;1.20;;;;;;;5.21;100.00;98890.31;5048133;28;20067;-58
2021/12/24 11:08:32;;;;;;;3.67;1.08;;;;;;;5.10;100.00;98900.59;5048038;28;20801;-59
2021/12/24 11:11:01;;;;;;;1.85;1.10;;;;;;;5.17;100.00;98907.09;5050405;28;20297;-59
2021/12/24 11:13:37;;;;;;;2.42;1.48;;;;;;;5.17;100.00;98903.63;5046921;28;20509;-59
2021/12/24 11:16:06;;;;;;;1.92;1.35;;;;;;;5.00;100.00;98912.56;5045807;28;20049;-59
2021/12/24 11:18:38;;;;;;;1.33;1.08;;;;;;;4.82;100.00;98898.91;5047620;28;20048;-59
2021/12/24 11:21:17;;;;;;;1.98;1.10;;;;;;;4.70;100.00;98894.47;5048861;28;20144;-58
2021/12/24 11:23:44;;;;;;;1.35;1.00;;;;;;;4.87;100.00;98889.03;5047019;28;20053;-59
2021/12/24 11:26:18;;;;;;;2.53;1.25;;;;;;;4.94;100.00;98890.28;5047586;28;20200;-59
2021/12/24 11:28:46;;;;;;;2.72;1.35;;;;;;;4.97;100.00;98881.47;5047693;28;20061;-58
2021/12/24 11:31:14;;;;;;;1.30;0.88;;;;;;;4.98;100.00;98893.56;5027106;28;20088;-60
2021/12/24 11:33:43;;;;;;;1.90;1.05;;;;;;;4.90;100.00;98869.72;5047598;28;20041;-57
2021/12/24 11:36:12;;;;;;;2.17;1.30;;;;;;;4.98;100.00;98864.88;5047513;28;20061;-60
2021/12/24 11:38:51;;;;;;;2.53;1.52;;;;;;;4.93;100.00;98886.03;5045223;28;20053;-57
2021/12/24 11:41:21;;;;;;;2.20;1.08;;;;;;;4.69;100.00;98905.81;5043444;28;20224;-58
2021/12/24 11:43:49;;;;;;;3.88;0.95;;;;;;;4.54;100.00;98904.97;5030039;28;20045;-57
2021/12/24 11:46:20;;;;;;;1.13;0.73;;;;;;;4.65;100.00;98881.72;5048100;28;20525;-57
2021/12/24 11:48:49;;;;;;;1.65;1.15;;;;;;;4.85;100.00;98890.03;5052145;28;20588;-58
2021/12/24 11:51:17;;;;;;;2.03;1.10;;;;;;;4.64;100.00;98894.81;5045321;28;20139;-57
2021/12/24 11:53:45;;;;;;;1.27;0.70;;;;;;;4.63;100.00;98909.63;5047606;28;20047;-59
2021/12/24 11:56:15;;;;;;;2.58;1.08;;;;;;;4.62;100.00;98894.94;5033009;28;20049;-59
2021/12/24 11:58:47;;;;;;;2.15;0.60;;;;;;;4.60;100.00;98920.25;5041383;28;20045;-59
2021/12/24 12:01:16;;;;;;;1.45;0.82;;;;;;;4.42;100.00;98939.63;5050098;28;20084;-59
2021/12/24 12:03:55;;;;;;;2.40;1.10;;;;;;;4.25;100.00;98958.88;5047638;28;20448;-59
2021/12/24 12:06:22;;;;;;;1.35;0.85;;;;;;;4.14;100.00;98954.28;5048373;28;20091;-59
2021/12/24 12:09:00;;;;;;;3.05;1.10;;;;;;;3.96;100.00;98970.97;5047601;28;20057;-60
2021/12/24 12:11:35;;;;;;;1.35;1.00;;;;;;;3.94;100.00;98962.44;5051008;28;20505;-56
2021/12/24 12:14:04;;;;;;;1.73;0.90;;;;;;;3.95;100.00;98969.31;5044715;28;20420;-55
2021/12/24 12:16:40;;;;;;;0.70;0.70;;;;;;;3.88;100.00;98974.06;5050283;28;20084;-59
2021/12/24 12:19:20;;;;;;;;;;;;;;;3.86;100.00;98965.47;5045335;28;20521;-60
2021/12/24 12:27:42;;;;;;;1.10;0.90;;;;;;;3.70;100.00;98983.75;5053835;28;20087;-59
2021/12/24 12:30:30;;;;;;;1.58;1.15;;;;;;;3.68;100.00;99010.78;5041381;28;20061;-59
2021/12/24 12:33:32;;;;;;;1.60;1.00;;;;;;;3.54;100.00;99017.59;5053854;28;20095;-62
2021/12/24 12:36:02;;;;;;;1.10;1.00;;;;;;;3.39;100.00;99018.44;5050996;28;20083;-60
2021/12/24 12:38:33;;;;;;;2.08;1.13;;;;;;;3.24;100.00;99001.06;5047229;28;20136;-60
2021/12/24 12:41:23;;;;;;;0.70;0.60;;;;;;;3.15;100.00;99017.19;5045517;28;20095;-60
2021/12/24 12:43:53;;;;;;;2.05;1.17;;;;;;;3.11;100.00;99010.47;5051730;28;20503;-58
2021/12/24 12:46:31;;;;;;;3.33;1.20;;;;;;;2.98;100.00;99016.34;5050926;28;20041;-59
2021/12/24 12:49:01;;;;;;;2.20;1.20;;;;;;;2.91;100.00;99014.16;5046353;28;20405;-59
2021/12/24 12:51:49;;;;;;;1.33;1.10;;;;;;;2.91;100.00;99004.59;5056170;28;20140;-59
2021/12/24 12:54:36;;;;;;;1.30;0.85;;;;;;;2.86;100.00;99001.41;5050275;28;20098;-57
2021/12/24 12:57:27;;;;;;;1.33;1.00;;;;;;;2.85;100.00;99017.91;5029694;28;20067;-61
2021/12/24 13:00:19;;;;;;;1.60;0.93;;;;;;;2.82;100.00;99027.63;5049663;28;20132;-60
2021/12/24 13:05:53;;;;;;;2.47;1.50;;;;;;;2.74;100.00;99031.47;5047413;28;20560;-60
2021/12/24 13:08:22;;;;;;;3.15;2.10;;;;;;;2.74;100.00;99041.00;5047756;28;20434;-60
2021/12/24 13:11:11;;;;;;;2.42;1.67;;;;;;;2.70;100.00;99034.28;5051172;28;20053;-59
2021/12/24 13:13:54;;;;;;;2.42;1.48;;;;;;;2.72;100.00;99030.72;5033668;28;20412;-59
2021/12/24 13:16:25;;;;;;;2.70;2.13;;;;;;;2.68;100.00;99039.59;5052310;28;20099;-60
2021/12/24 13:18:58;;;;;;;3.00;2.10;;;;;;;2.70;100.00;99042.09;5033697;28;20057;-59